createdAt,value
2023-04-02T00:01:07.202Z,39.13
2023-04-02T00:03:44.047Z,43.87
2023-04-02T00:06:30.574Z,41.07
2023-04-02T00:09:17.865Z,41.10
2023-04-02T00:11:45.932Z,47.30
2023-04-02T00:14:16.921Z,43.40
2023-04-02T00:16:44.199Z,38.70
2023-04-02T00:19:20.115Z,41.07
2023-04-02T00:21:47.625Z,37.07
2023-04-02T00:24:16.347Z,43.03
2023-04-02T00:26:44.562Z,46.03
2023-04-02T00:29:12.220Z,42.00
2023-04-02T00:31:41.315Z,49.23
2023-04-02T00:34:10.043Z,42.50
2023-04-02T00:36:37.084Z,42.93
2023-04-02T00:39:08.659Z,42.23
2023-04-02T00:41:39.013Z,43.57
2023-04-02T00:44:06.238Z,44.10
2023-04-02T00:46:47.349Z,44.67
2023-04-02T00:49:20.481Z,42.47
2023-04-02T00:51:53.591Z,42.73
2023-04-02T00:54:21.879Z,43.17
2023-04-02T00:56:50.977Z,39.97
2023-04-02T00:59:26.959Z,38.67
2023-04-02T01:02:01.678Z,38.07
2023-04-02T01:04:34.855Z,47.07
2023-04-02T01:07:05.307Z,45.10
2023-04-02T01:09:37.952Z,53.73
2023-04-02T01:12:07.728Z,46.23
2023-04-02T01:14:49.375Z,46.13
2023-04-02T01:17:18.721Z,48.37
2023-04-02T01:19:52.789Z,49.60
2023-04-02T01:22:19.677Z,43.10
2023-04-02T01:24:46.594Z,45.20
2023-04-02T01:27:22.902Z,36.93
2023-04-02T01:29:53.524Z,45.53
2023-04-02T01:32:21.918Z,45.23
2023-04-02T01:34:50.153Z,40.07
2023-04-02T01:37:32.488Z,36.50
2023-04-02T01:40:08.815Z,33.83
2023-04-02T01:42:54.429Z,39.43
2023-04-02T01:45:22.616Z,36.00
2023-04-02T01:47:50.412Z,33.20
2023-04-02T01:50:20.223Z,33.80
2023-04-02T01:52:49.709Z,33.43
2023-04-02T01:55:19.791Z,37.87
2023-04-02T01:57:48.548Z,35.27
2023-04-02T02:00:17.113Z,38.37
2023-04-02T02:02:49.149Z,36.67
2023-04-02T02:05:18.883Z,37.27
2023-04-02T02:07:47.468Z,38.13
2023-04-02T02:10:18.249Z,35.10
2023-04-02T02:12:46.172Z,32.07
2023-04-02T02:15:17.316Z,44.80
2023-04-02T02:17:45.069Z,33.30
2023-04-02T02:20:13.212Z,38.57
2023-04-02T02:22:44.709Z,30.43
2023-04-02T02:25:14.321Z,28.57
2023-04-02T02:27:53.599Z,28.63
2023-04-02T02:30:21.800Z,26.73
2023-04-02T02:33:08.996Z,26.77
2023-04-02T02:35:43.536Z,29.70
2023-04-02T02:38:26.164Z,27.90
2023-04-02T02:40:54.796Z,29.10
2023-04-02T02:43:21.900Z,31.03
2023-04-02T02:45:49.443Z,26.43
2023-04-02T02:48:18.733Z,26.30
2023-04-02T02:50:45.999Z,28.67
2023-04-02T02:53:21.709Z,25.13
2023-04-02T02:55:54.578Z,31.60
2023-04-02T02:58:27.643Z,27.23
2023-04-02T03:01:09.307Z,27.37
2023-04-02T03:03:40.778Z,33.37
2023-04-02T03:06:10.818Z,27.40
2023-04-02T03:08:43.713Z,23.80
2023-04-02T03:11:32.744Z,22.70
2023-04-02T03:14:23.107Z,24.60
2023-04-02T03:16:54.159Z,22.63
2023-04-02T03:19:27.713Z,22.70
2023-04-02T03:22:12.862Z,21.10
2023-04-02T03:24:59.551Z,22.20
2023-04-02T03:27:33.003Z,24.87
2023-04-02T03:30:06.014Z,23.07
2023-04-02T03:32:38.041Z,20.80
2023-04-02T03:35:28.503Z,20.40
2023-04-02T03:38:07.651Z,18.73
2023-04-02T03:40:38.714Z,19.70
2023-04-02T03:43:24.140Z,20.83
2023-04-02T03:45:55.908Z,20.53
2023-04-02T03:48:35.158Z,20.10
2023-04-02T03:51:11.707Z,20.10
2023-04-02T03:53:39.462Z,17.93
2023-04-02T03:56:07.773Z,17.50
2023-04-02T03:58:47.236Z,20.70
2023-04-02T04:01:26.500Z,18.80
2023-04-02T04:03:54.398Z,18.27
2023-04-02T04:06:24.388Z,18.17
2023-04-02T04:09:09.330Z,15.53
2023-04-02T04:11:37.901Z,14.43
2023-04-02T04:14:13.578Z,14.40
2023-04-02T04:16:48.223Z,15.07
2023-04-02T04:19:42.183Z,14.40
2023-04-02T04:22:10.900Z,13.47
2023-04-02T04:24:39.666Z,10.43
2023-04-02T04:27:12.906Z,12.13
2023-04-02T04:29:50.553Z,9.50
2023-04-02T04:32:17.568Z,8.40
2023-04-02T04:34:51.678Z,10.00
2023-04-02T04:37:21.970Z,9.47
2023-04-02T04:39:54.576Z,8.87
2023-04-02T04:42:25.578Z,8.13
2023-04-02T04:45:03.907Z,6.17
2023-04-02T04:47:40.621Z,5.33
2023-04-02T04:50:11.756Z,4.13
2023-04-02T04:52:41.612Z,5.13
2023-04-02T04:55:20.990Z,4.77
2023-04-02T04:57:48.925Z,4.30
2023-04-02T05:00:19.894Z,3.70
2023-04-02T05:02:47.132Z,4.53
2023-04-02T05:05:21.537Z,3.13
2023-04-02T05:07:59.106Z,3.50
2023-04-02T05:10:45.428Z,4.40
2023-04-02T05:13:25.481Z,2.93
2023-04-02T05:16:09.659Z,2.50
2023-04-02T05:18:42.061Z,2.57
2023-04-02T05:21:08.980Z,1.97
2023-04-02T05:23:52.230Z,2.70
2023-04-02T05:26:21.436Z,2.27
2023-04-02T05:28:58.325Z,2.73
2023-04-02T05:31:28.509Z,2.53
2023-04-02T05:33:56.681Z,1.90
2023-04-02T05:36:28.112Z,2.67
2023-04-02T05:38:58.814Z,1.50
2023-04-02T05:41:38.532Z,2.10
2023-04-02T05:44:17.884Z,1.53
2023-04-02T05:46:50.043Z,1.87
2023-04-02T05:49:27.145Z,2.03
2023-04-02T05:51:58.020Z,1.50
2023-04-02T05:54:48.074Z,1.10
2023-04-02T05:57:27.068Z,1.70
2023-04-02T06:00:04.415Z,2.97
2023-04-02T06:02:42.848Z,1.87
2023-04-02T06:05:16.065Z,0.97
2023-04-02T06:07:49.714Z,1.00
2023-04-02T06:10:20.724Z,1.37
2023-04-02T06:12:50.855Z,1.13
2023-04-02T06:15:21.779Z,1.33
2023-04-02T06:17:53.247Z,1.50
2023-04-02T06:20:21.519Z,2.27
2023-04-02T06:22:49.486Z,1.40
2023-04-02T06:25:19.921Z,1.70
2023-04-02T06:27:49.604Z,1.57
2023-04-02T06:30:23.302Z,2.03
2023-04-02T06:32:52.094Z,1.93
2023-04-02T06:35:20.449Z,3.33
2023-04-02T06:37:57.662Z,2.00
2023-04-02T06:40:34.321Z,2.57
2023-04-02T06:43:27.228Z,2.40
2023-04-02T06:46:00.980Z,2.87
2023-04-02T06:48:38.086Z,3.37
2023-04-02T06:51:05.022Z,3.20
2023-04-02T06:53:37.222Z,5.33
2023-04-02T06:56:24.077Z,4.63
2023-04-02T06:58:51.540Z,4.73
2023-04-02T07:01:22.391Z,4.50
2023-04-02T07:03:49.329Z,5.30
2023-04-02T07:06:30.581Z,5.20
2023-04-02T07:09:00.186Z,5.10
2023-04-02T07:11:27.735Z,5.40
2023-04-02T07:13:58.110Z,5.17
2023-04-02T07:16:27.367Z,6.37
2023-04-02T07:19:03.647Z,6.93
2023-04-02T07:21:33.344Z,6.93
2023-04-02T07:24:00.495Z,11.47
2023-04-02T07:26:28.227Z,8.90
2023-04-02T07:28:55.414Z,8.27
2023-04-02T07:31:26.537Z,8.53
2023-04-02T07:33:55.004Z,8.60
2023-04-02T07:36:23.493Z,10.27
2023-04-02T07:38:50.568Z,12.83
2023-04-02T07:41:18.332Z,18.17
2023-04-02T07:43:45.341Z,41.67
2023-04-02T07:46:14.360Z,15.37
2023-04-02T07:48:41.401Z,16.73
2023-04-02T07:51:15.538Z,35.17
2023-04-02T07:53:42.504Z,20.57
2023-04-02T07:56:13.706Z,65.00
2023-04-02T07:58:40.589Z,33.87
2023-04-02T08:01:14.394Z,15.07
2023-04-02T08:03:41.822Z,16.63
2023-04-02T08:06:08.773Z,43.57
2023-04-02T08:08:35.723Z,10.83
2023-04-02T08:11:02.608Z,26.47
2023-04-02T08:13:29.629Z,12.90
2023-04-02T08:15:58.282Z,11.97
2023-04-02T08:18:25.226Z,20.63
2023-04-02T08:20:53.010Z,20.97
2023-04-02T08:23:20.170Z,25.43
2023-04-02T08:25:47.398Z,20.73
2023-04-02T08:28:14.618Z,17.23
2023-04-02T08:30:42.084Z,12.57
2023-04-02T08:33:08.979Z,16.50
2023-04-02T08:35:36.325Z,11.37
2023-04-02T08:38:03.585Z,12.40
2023-04-02T08:40:36.106Z,10.57
2023-04-02T08:43:13.258Z,11.53
2023-04-02T08:45:58.856Z,12.77
2023-04-02T08:48:25.776Z,14.07
2023-04-02T08:50:55.404Z,11.80
2023-04-02T08:53:27.596Z,14.17
2023-04-02T08:56:06.044Z,13.20
2023-04-02T08:58:45.146Z,13.33
2023-04-02T09:01:19.627Z,12.53
2023-04-02T09:03:48.084Z,14.33
2023-04-02T09:06:17.756Z,13.10
2023-04-02T09:08:46.582Z,12.97
2023-04-02T09:11:23.815Z,13.37
2023-04-02T09:13:58.218Z,10.80
2023-04-02T09:16:34.828Z,10.37
2023-04-02T09:19:02.445Z,9.67
2023-04-02T09:21:32.000Z,9.27
2023-04-02T09:23:58.944Z,11.20
2023-04-02T09:26:25.734Z,10.10
2023-04-02T09:28:53.434Z,9.83
2023-04-02T09:31:35.241Z,8.47
2023-04-02T09:34:02.863Z,9.17
2023-04-02T09:36:37.324Z,9.63
2023-04-02T09:39:07.406Z,8.87
2023-04-02T09:41:37.045Z,7.87
2023-04-02T09:44:13.660Z,8.13
2023-04-02T09:46:59.994Z,8.57
2023-04-02T09:49:37.093Z,9.17
2023-04-02T09:52:19.990Z,58.57
2023-04-02T09:54:47.915Z,26.07
2023-04-02T09:57:21.390Z,7.00
2023-04-02T09:59:48.478Z,9.97
2023-04-02T10:02:24.558Z,7.70
2023-04-02T10:04:52.040Z,7.23
2023-04-02T10:07:37.548Z,8.40
2023-04-02T10:10:25.098Z,9.00
2023-04-02T10:12:59.911Z,8.27
2023-04-02T10:15:32.712Z,8.90
2023-04-02T10:18:16.243Z,8.57
2023-04-02T10:20:50.837Z,7.80
2023-04-02T10:23:19.095Z,9.83
2023-04-02T10:25:49.854Z,10.43
2023-04-02T10:28:29.796Z,8.90
2023-04-02T10:30:56.782Z,8.57
2023-04-02T10:33:36.037Z,8.73
2023-04-02T10:36:19.751Z,8.57
2023-04-02T10:39:05.316Z,9.30
2023-04-02T10:41:32.958Z,10.93
2023-04-02T10:44:20.306Z,10.73
2023-04-02T10:47:06.803Z,11.43
2023-04-02T10:49:39.895Z,11.27
2023-04-02T10:52:09.347Z,10.73
2023-04-02T10:54:39.420Z,13.30
2023-04-02T10:57:19.988Z,11.87
2023-04-02T10:59:49.311Z,14.73
2023-04-02T11:02:34.562Z,25.80
2023-04-02T11:05:04.154Z,20.50
2023-04-02T11:07:32.709Z,38.53
2023-04-02T11:10:00.119Z,49.67
2023-04-02T11:12:46.952Z,29.33
2023-04-02T11:15:16.179Z,15.17
2023-04-02T11:17:44.364Z,16.67
2023-04-02T11:20:34.599Z,24.20
2023-04-02T11:23:12.320Z,17.27
2023-04-02T11:25:39.994Z,17.87
2023-04-02T11:28:25.804Z,22.23
2023-04-02T11:30:52.978Z,18.03
2023-04-02T11:33:37.688Z,15.93
2023-04-02T11:36:24.950Z,17.57
2023-04-02T11:38:53.016Z,24.07
2023-04-02T11:41:38.467Z,17.27
2023-04-02T11:44:05.651Z,16.23
2023-04-02T11:46:37.233Z,14.47
2023-04-02T11:49:22.942Z,15.53
2023-04-02T11:51:56.400Z,14.13
2023-04-02T11:54:31.613Z,18.37
2023-04-02T11:57:09.140Z,17.97
2023-04-02T11:59:42.084Z,14.63
2023-04-02T12:02:09.060Z,17.13
2023-04-02T12:04:40.582Z,22.33
2023-04-02T12:07:26.900Z,30.00
2023-04-02T12:09:59.118Z,23.67
2023-04-02T12:12:27.346Z,22.37
2023-04-02T12:14:56.086Z,18.30
2023-04-02T12:17:27.191Z,23.90
2023-04-02T12:19:55.587Z,18.17
2023-04-02T12:22:24.316Z,16.03
2023-04-02T12:24:53.669Z,17.03
2023-04-02T12:27:28.383Z,17.57
2023-04-02T12:29:57.846Z,16.17
2023-04-02T12:32:29.924Z,17.63
2023-04-02T12:34:58.364Z,16.43
2023-04-02T12:37:27.194Z,19.03
2023-04-02T12:39:55.692Z,18.67
2023-04-02T12:42:27.475Z,15.87
2023-04-02T12:44:55.310Z,16.53
2023-04-02T12:47:22.267Z,14.33
2023-04-02T12:49:49.880Z,16.30
2023-04-02T12:52:18.467Z,13.80
2023-04-02T12:54:51.322Z,18.07
2023-04-02T12:57:27.158Z,14.47
2023-04-02T12:59:55.322Z,14.20
2023-04-02T13:02:27.243Z,19.27
2023-04-02T13:04:56.163Z,15.77
2023-04-02T13:07:25.545Z,18.60
2023-04-02T13:09:53.687Z,18.07
2023-04-02T13:12:24.762Z,21.37
2023-04-02T13:14:52.877Z,24.17
2023-04-02T13:17:38.554Z,19.63
2023-04-02T13:20:23.942Z,26.63
2023-04-02T13:22:51.708Z,16.67
2023-04-02T13:25:18.641Z,20.67
2023-04-02T13:27:45.661Z,20.97
2023-04-02T13:30:22.133Z,17.30
2023-04-02T13:32:49.066Z,14.50
2023-04-02T13:35:15.975Z,17.37
2023-04-02T13:37:42.963Z,16.90
2023-04-02T13:40:13.796Z,15.63
2023-04-02T13:42:42.327Z,16.80
2023-04-02T13:45:29.537Z,12.23
2023-04-02T13:48:01.173Z,14.03
2023-04-02T13:50:29.654Z,13.30
2023-04-02T13:52:57.821Z,11.77
2023-04-02T13:55:26.691Z,12.73
2023-04-02T13:57:53.813Z,16.53
2023-04-02T14:00:20.764Z,14.03
2023-04-02T14:02:50.085Z,13.57
2023-04-02T14:05:19.657Z,12.87
2023-04-02T14:07:51.858Z,14.40
2023-04-02T14:10:28.103Z,11.40
2023-04-02T14:12:54.993Z,24.33
2023-04-02T14:15:40.835Z,19.27
2023-04-02T14:18:07.785Z,14.50
2023-04-02T14:20:43.906Z,27.57
2023-04-02T14:23:36.774Z,11.60
2023-04-02T14:26:14.983Z,11.33
2023-04-02T14:29:01.686Z,21.37
2023-04-02T14:31:46.642Z,9.60
2023-04-02T14:34:33.726Z,11.30
2023-04-02T14:37:06.696Z,11.50
2023-04-02T14:40:06.225Z,12.63
2023-04-02T14:42:33.018Z,10.73
2023-04-02T14:45:02.989Z,13.17
2023-04-02T14:47:33.859Z,10.27
2023-04-02T14:50:05.748Z,8.60
2023-04-02T14:52:34.029Z,9.03
2023-04-02T14:55:03.451Z,13.67
2023-04-02T14:57:31.830Z,9.77
2023-04-02T15:00:02.369Z,14.20
2023-04-02T15:02:29.947Z,15.50
2023-04-02T15:05:22.908Z,10.87
2023-04-02T15:07:56.845Z,12.03
2023-04-02T15:10:29.165Z,11.60
2023-04-02T15:12:57.070Z,12.00
2023-04-02T15:15:42.077Z,10.17
2023-04-02T15:18:11.082Z,11.10
2023-04-02T15:21:00.727Z,10.87
2023-04-02T15:23:36.772Z,13.67
2023-04-02T15:26:33.101Z,12.17
2023-04-02T15:29:28.419Z,12.43
2023-04-02T15:32:01.301Z,12.90
2023-04-02T15:34:28.169Z,12.87
2023-04-02T15:37:07.830Z,11.40
2023-04-02T15:39:39.206Z,13.23
2023-04-02T15:42:06.189Z,14.60
2023-04-02T15:44:34.166Z,10.83
2023-04-02T15:47:03.905Z,11.60
2023-04-02T15:49:47.364Z,12.20
2023-04-02T15:52:33.577Z,10.97
2023-04-02T15:55:19.345Z,8.63
2023-04-02T15:57:46.757Z,11.03
2023-04-02T16:00:32.282Z,11.70
2023-04-02T16:03:18.143Z,13.10
2023-04-02T16:05:51.307Z,9.73
2023-04-02T16:08:37.469Z,11.17
2023-04-02T16:11:07.335Z,10.63
2023-04-02T16:13:36.632Z,9.00
2023-04-02T16:16:12.739Z,8.17
2023-04-02T16:18:57.991Z,8.20
2023-04-02T16:21:28.819Z,8.83
2023-04-02T16:23:55.799Z,10.83
2023-04-02T16:26:23.077Z,7.03
2023-04-02T16:29:07.542Z,9.20
2023-04-02T16:31:52.987Z,8.30
2023-04-02T16:34:19.908Z,6.87
2023-04-02T16:37:06.553Z,7.57
2023-04-02T16:39:42.692Z,8.20
2023-04-02T16:42:18.791Z,7.83
2023-04-02T16:45:08.667Z,10.40
2023-04-02T16:47:46.099Z,6.63
2023-04-02T16:50:19.161Z,9.23
2023-04-02T16:53:04.388Z,10.33
2023-04-02T16:55:37.954Z,39.73
2023-04-02T16:58:04.833Z,28.93
2023-04-02T17:00:50.314Z,32.10
2023-04-02T17:03:23.157Z,15.03
2023-04-02T17:05:54.320Z,39.70
2023-04-02T17:08:21.171Z,19.87
2023-04-02T17:10:51.479Z,7.83
2023-04-02T17:13:26.442Z,7.20
2023-04-02T17:16:14.014Z,16.07
2023-04-02T17:18:42.566Z,10.27
2023-04-02T17:21:14.366Z,8.00
2023-04-02T17:23:55.330Z,8.97
2023-04-02T17:26:25.266Z,11.33
2023-04-02T17:28:53.114Z,8.60
2023-04-02T17:31:24.427Z,9.93
2023-04-02T17:33:51.721Z,8.10
2023-04-02T17:36:33.070Z,13.80
2023-04-02T17:39:09.334Z,10.00
2023-04-02T17:41:45.300Z,13.43
2023-04-02T17:44:24.417Z,10.13
2023-04-02T17:46:54.069Z,6.83
2023-04-02T17:49:41.452Z,6.00
2023-04-02T17:52:11.776Z,6.17
2023-04-02T17:55:01.721Z,7.57
2023-04-02T17:57:37.621Z,6.87
2023-04-02T18:00:04.759Z,7.63
2023-04-02T18:03:01.813Z,8.03
2023-04-02T18:05:31.972Z,7.07
2023-04-02T18:08:24.262Z,6.67
2023-04-02T18:11:06.432Z,8.10
2023-04-02T18:13:37.244Z,6.50
2023-04-02T18:16:12.958Z,5.40
2023-04-02T18:18:39.923Z,8.23
2023-04-02T18:21:31.112Z,6.13
2023-04-02T18:23:58.027Z,9.23
2023-04-02T18:26:37.167Z,6.63
2023-04-02T18:29:03.980Z,7.67
2023-04-02T18:31:30.871Z,5.77
2023-04-02T18:34:16.695Z,6.90
2023-04-02T18:37:02.452Z,7.90
2023-04-02T18:39:32.716Z,7.60
2023-04-02T18:42:10.321Z,6.67
2023-04-02T18:44:56.374Z,7.23
2023-04-02T18:47:35.120Z,7.27
2023-04-02T18:50:05.121Z,5.33
2023-04-02T18:52:32.098Z,6.50
2023-04-02T18:55:05.820Z,8.03
2023-04-02T18:57:36.257Z,5.70
2023-04-02T19:00:27.866Z,7.13
2023-04-02T19:03:01.691Z,7.17
2023-04-02T19:05:50.760Z,5.77
2023-04-02T19:08:19.833Z,8.47
2023-04-02T19:10:48.313Z,5.20
2023-04-02T19:13:16.529Z,5.57
2023-04-02T19:16:08.883Z,5.70
2023-04-02T19:18:35.786Z,6.43
2023-04-02T19:21:15.354Z,5.57
2023-04-02T19:24:05.349Z,5.53
2023-04-02T19:26:49.491Z,6.47
2023-04-02T19:29:24.192Z,5.83
2023-04-02T19:31:59.091Z,5.07
2023-04-02T19:34:35.116Z,5.10
2023-04-02T19:37:06.277Z,5.67
2023-04-02T19:39:47.067Z,4.80
2023-04-02T19:42:43.417Z,4.23
2023-04-02T19:45:33.470Z,4.77
2023-04-02T19:48:01.954Z,5.27
2023-04-02T19:50:29.059Z,6.40
2023-04-02T19:52:56.032Z,6.97
2023-04-02T19:55:22.944Z,6.03
2023-04-02T19:57:51.294Z,7.53
2023-04-02T20:00:18.579Z,7.50
2023-04-02T20:02:45.626Z,8.03
2023-04-02T20:05:13.600Z,7.50
2023-04-02T20:07:40.619Z,6.87
2023-04-02T20:10:07.945Z,6.77
2023-04-02T20:12:34.967Z,7.80
2023-04-02T20:15:02.331Z,8.00
2023-04-02T20:17:29.398Z,8.57
2023-04-02T20:19:57.323Z,7.77
2023-04-02T20:22:24.444Z,10.27
2023-04-02T20:24:51.750Z,8.97
2023-04-02T20:27:18.641Z,9.27
2023-04-02T20:29:46.393Z,9.37
2023-04-02T20:32:13.699Z,12.73
2023-04-02T20:34:40.551Z,10.23
2023-04-02T20:37:07.990Z,11.10
2023-04-02T20:39:35.171Z,10.50
2023-04-02T20:42:03.601Z,10.67
2023-04-02T20:44:31.052Z,11.20
2023-04-02T20:46:58.112Z,12.17
2023-04-02T20:49:24.985Z,12.83
2023-04-02T20:51:53.502Z,13.97
2023-04-02T20:54:20.569Z,11.43
2023-04-02T20:56:47.632Z,11.33
2023-04-02T20:59:14.705Z,11.93
2023-04-02T21:01:42.013Z,11.13
2023-04-02T21:04:09.142Z,12.33
2023-04-02T21:06:37.590Z,14.33
2023-04-02T21:09:08.281Z,11.73
2023-04-02T21:11:36.743Z,13.87
2023-04-02T21:14:04.590Z,11.83
2023-04-02T21:16:32.395Z,15.93
2023-04-02T21:19:03.896Z,11.70
2023-04-02T21:21:31.347Z,16.73
2023-04-02T21:24:02.081Z,16.40
2023-04-02T21:26:30.933Z,15.53
2023-04-02T21:28:58.766Z,12.80
2023-04-02T21:31:26.941Z,13.43
2023-04-02T21:33:54.881Z,15.83
2023-04-02T21:36:26.132Z,14.93
2023-04-02T21:38:54.692Z,14.97
2023-04-02T21:41:22.938Z,16.87
2023-04-02T21:43:50.287Z,16.20
2023-04-02T21:46:18.430Z,14.90
2023-04-02T21:48:45.845Z,11.83
2023-04-02T21:51:16.897Z,15.57
2023-04-02T21:53:43.936Z,14.00
2023-04-02T21:56:23.546Z,12.87
2023-04-02T21:58:51.034Z,13.50
2023-04-02T22:01:26.927Z,15.83
2023-04-02T22:03:56.130Z,15.73
2023-04-02T22:06:24.717Z,12.47
2023-04-02T22:08:53.652Z,14.43
2023-04-02T22:11:21.818Z,13.53
2023-04-02T22:13:49.093Z,13.57
2023-04-02T22:16:18.223Z,14.93
2023-04-02T22:18:45.700Z,14.90
2023-04-02T22:21:12.935Z,15.37
2023-04-02T22:23:41.311Z,18.17
2023-04-02T22:26:08.660Z,17.17
2023-04-02T22:28:36.298Z,12.83
2023-04-02T22:31:09.323Z,13.90
2023-04-02T22:33:36.472Z,12.07
2023-04-02T22:36:03.817Z,10.60
2023-04-02T22:38:31.515Z,13.90
2023-04-02T22:41:08.750Z,14.47
2023-04-02T22:43:36.429Z,15.10
2023-04-02T22:46:04.411Z,10.27
2023-04-02T22:48:31.508Z,8.43
2023-04-02T22:50:58.556Z,10.90
2023-04-02T22:53:25.849Z,11.70
2023-04-02T22:55:53.050Z,14.40
2023-04-02T22:58:20.676Z,11.50
2023-04-02T23:00:47.946Z,8.33
2023-04-02T23:03:14.870Z,9.03
2023-04-02T23:05:42.683Z,8.87
2023-04-02T23:08:09.937Z,9.90
2023-04-02T23:10:37.126Z,11.27
2023-04-02T23:13:04.128Z,8.40
2023-04-02T23:15:31.048Z,14.57
2023-04-02T23:17:57.981Z,13.47
2023-04-02T23:20:24.840Z,8.07
2023-04-02T23:22:51.789Z,10.20
2023-04-02T23:25:18.580Z,12.20
2023-04-02T23:27:45.721Z,7.63
2023-04-02T23:30:12.973Z,8.63
2023-04-02T23:32:40.026Z,12.10
2023-04-02T23:35:06.980Z,8.63
2023-04-02T23:37:33.974Z,10.57
2023-04-02T23:40:00.896Z,10.17
2023-04-02T23:42:28.436Z,10.33
2023-04-02T23:44:55.723Z,7.90
2023-04-02T23:47:22.554Z,8.47
2023-04-02T23:49:49.380Z,9.77
2023-04-02T23:52:16.371Z,9.53
2023-04-02T23:54:43.150Z,7.20
2023-04-02T23:57:10.212Z,7.50
2023-04-02T23:59:37.115Z,8.10
